KBNW/BNW METAR and TAF weather

Enter ICAO airport designator
Station Type Date Time Source
KBNW METAR 2020/06/05 11:55 UTC NOAA

KBNW 051155Z AUTO 18006KT 10SM CLR 19/19 A2984 RMK AO2


Station Type Date Time Source
KBNW Decoded METAR 2020/06/05 11:55 UTC NOAA

Boone Municipal, IA, United States (KBNW) 42-03N 093-51W
Jun 05, 2020 - 07:55 AM EDT / 2020.06.05 1155 UTC
Wind: from the S (180 degrees) at 7 MPH (6 KT):0
Visibility: 10 mile(s):0
Sky conditions: clear
Temperature: 66 F (19 C)
Dew Point: 66 F (19 C)
Relative Humidity: 100%
Pressure (altimeter): 29.84 in. Hg (1010 hPa)
ob: KBNW 051155Z AUTO 18006KT 10SM CLR 19/19 A2984 RMK AO2
cycle: 12

Station Type Date Time Source
KBNW TAF UTC NOAA

Error!

Example: see airport list